Mae De Jesus — CULK8 — position and weather

sailwx.info

Track history (hours):
 
Tides and Currents Weather Stations Pressure Air Temp Water Temp Dewpoint Dewpoint Depression Visibility Wind Speed Wind Dir Waves Ship Positions

Mae De Jesus

Last reported at 2017-Oct-18 01:08 UTC. Time now 2017-Oct-18 02:27 UTC.
Position N 38°30' W 008°55'.

Length 15 m.

Type: Fishing. MMSI: 263410850.

Date/timePositionNaut miles runAvg speedWind from/ knotsBaromVisibWave heightAir tempDewpointWater temp
2017-Oct-18 01:08N 38°30' W 008°55'2 9.1
2017-Oct-18 00:57N 38°28' W 008°57'12 2.0
2017-Oct-17 18:52N 38°29' W 009°13'4 7.7
2017-Oct-17 18:20N 38°25' W 009°13'3 7.6
2017-Oct-17 17:56N 38°25' W 009°10'3 0.3
2017-Oct-17 09:32N 38°26' W 009°07'5 8.4
2017-Oct-17 08:54N 38°25' W 009°13'4 9.6
2017-Oct-17 08:30N 38°28' W 009°16'5 9.7
2017-Oct-17 08:00N 38°32' W 009°20'5 9.6
2017-Oct-17 07:30N 38°35' W 009°23'33 3.4
2017-Oct-16 21:52N 38°17' W 008°49'13 2.3
2017-Oct-16 16:18N 38°27' W 008°58'310.4
2017-Oct-16 16:00N 38°29' W 008°56'2 0.2
2017-Oct-16 05:43N 38°31' W 008°54'1 6.9
2017-Oct-16 05:30N 38°30' W 008°55'3 6.8
2017-Oct-16 05:00N 38°27' W 008°58'1 0.2
2017-Oct-15 21:31N 38°28' W 008°57'  
2017-Oct-13 03:57N 38°30' W 008°55'4 8.4
2017-Oct-13 03:30N 38°27' W 008°59'6 2.3
2017-Oct-13 00:44N 38°26' W 009°07'0 0.3
2017-Oct-13 00:30N 38°26' W 009°07'5 6.1
2017-Oct-12 23:45N 38°24' W 009°12'15 3.7
2017-Oct-12 19:46N 38°37' W 009°22'1 1.9
2017-Oct-12 19:07N 38°37' W 009°21'1 8.2
2017-Oct-12 19:00N 38°36' W 009°20'4 8.2
2017-Oct-12 18:28N 38°32' W 009°17'4 8.4
2017-Oct-12 17:57N 38°28' W 009°15'4 8.3
2017-Oct-12 17:30N 38°25' W 009°13'4 8.1
2017-Oct-12 17:00N 38°26' W 009°08'2 3.1
2017-Oct-12 16:30N 38°26' W 009°07'0 0.0
2017-Oct-12 03:41N 38°26' W 009°07'0 0.0
2017-Oct-12 03:30N 38°26' W 009°07'3 5.2
2017-Oct-12 03:00N 38°25' W 009°10'3 6.6
2017-Oct-12 02:30N 38°26' W 009°14'4 8.5
2017-Oct-12 02:00N 38°30' W 009°16'5 0.8
2017-Oct-11 19:44N 38°25' W 009°13'4 8.3
2017-Oct-11 19:12N 38°25' W 009°08'2 8.9
2017-Oct-11 18:58N 38°26' W 009°05'4 8.5
2017-Oct-11 18:28N 38°27' W 009°00'3 7.1
2017-Oct-11 18:00N 38°29' W 008°57'2 0.1
2017-Oct-10 22:00N 38°27' W 008°58'4 9.0
2017-Oct-10 21:30N 38°31' W 008°55'1 0.1
2017-Oct-10 10:11N 38°31' W 008°54'1 5.6
2017-Oct-10 10:00N 38°30' W 008°55'3 6.9
2017-Oct-10 09:31N 38°28' W 008°58'4 7.8
2017-Oct-10 09:00N 38°26' W 009°02'4 7.1
2017-Oct-10 08:30N 38°26' W 009°07'0 0.0
2017-Oct-10 03:42N 38°26' W 009°07'0 0.0
2017-Oct-10 03:30N 38°26' W 009°07'3 6.1
2017-Oct-10 03:00N 38°25' W 009°10'3 6.4
2017-Oct-10 02:30N 38°26' W 009°14'4 8.0
2017-Oct-10 02:00N 38°29' W 009°16'4 7.8
2017-Oct-10 01:30N 38°33' W 009°19'4 7.7
2017-Oct-10 01:00N 38°36' W 009°21'4 0.6
2017-Oct-09 17:49N 38°40' W 009°20'2 7.8
2017-Oct-09 17:30N 38°41' W 009°17'3 6.4
2017-Oct-09 17:01N 38°41' W 009°13'3 5.0
2017-Oct-09 16:29N 38°42' W 009°10'0 0.0
2017-Oct-09 09:07N 38°42' W 009°10'1 4.5
2017-Oct-09 09:00N 38°42' W 009°09'3 5.6
2017-Oct-09 08:30N 38°41' W 009°13'3 6.5
2017-Oct-09 08:00N 38°42' W 009°17'3 5.5
2017-Oct-09 07:30N 38°40' W 009°20'23 2.4
2017-Oct-08 21:42N 38°26' W 008°56'1 4.5
2017-Oct-08 21:30N 38°27' W 008°56'4 7.9
2017-Oct-08 20:59N 38°31' W 008°54'0 0.5
2017-Oct-08 20:30N 38°31' W 008°54'  
Track history (hours):
 
Tides and Currents Weather Stations Pressure Air Temp Water Temp Dewpoint Dewpoint Depression Visibility Wind Speed Wind Dir Waves Ship Positions

Mae De Jesus

Last reported at 2017-Oct-18 01:08 UTC. Time now 2017-Oct-18 02:27 UTC.
Position N 38°30' W 008°55'.

Length 15 m.

Type: Fishing. MMSI: 263410850.

Date/timePositionNaut miles runAvg speedWind from/ knotsBaromVisibWave heightAir tempDewpointWater temp
2017-Oct-18 01:08N 38°30' W 008°55'2 9.1
2017-Oct-18 00:57N 38°28' W 008°57'12 2.0
2017-Oct-17 18:52N 38°29' W 009°13'4 7.7
2017-Oct-17 18:20N 38°25' W 009°13'3 7.6
2017-Oct-17 17:56N 38°25' W 009°10'3 0.3
2017-Oct-17 09:32N 38°26' W 009°07'5 8.4
2017-Oct-17 08:54N 38°25' W 009°13'4 9.6
2017-Oct-17 08:30N 38°28' W 009°16'5 9.7
2017-Oct-17 08:00N 38°32' W 009°20'5 9.6
2017-Oct-17 07:30N 38°35' W 009°23'33 3.4
2017-Oct-16 21:52N 38°17' W 008°49'13 2.3
2017-Oct-16 16:18N 38°27' W 008°58'310.4
2017-Oct-16 16:00N 38°29' W 008°56'2 0.2
2017-Oct-16 05:43N 38°31' W 008°54'1 6.9
2017-Oct-16 05:30N 38°30' W 008°55'3 6.8
2017-Oct-16 05:00N 38°27' W 008°58'1 0.2
2017-Oct-15 21:31N 38°28' W 008°57'  
2017-Oct-13 03:57N 38°30' W 008°55'4 8.4
2017-Oct-13 03:30N 38°27' W 008°59'6 2.3
2017-Oct-13 00:44N 38°26' W 009°07'0 0.3
2017-Oct-13 00:30N 38°26' W 009°07'5 6.1
2017-Oct-12 23:45N 38°24' W 009°12'15 3.7
2017-Oct-12 19:46N 38°37' W 009°22'1 1.9
2017-Oct-12 19:07N 38°37' W 009°21'1 8.2
2017-Oct-12 19:00N 38°36' W 009°20'4 8.2
2017-Oct-12 18:28N 38°32' W 009°17'4 8.4
2017-Oct-12 17:57N 38°28' W 009°15'4 8.3
2017-Oct-12 17:30N 38°25' W 009°13'4 8.1
2017-Oct-12 17:00N 38°26' W 009°08'2 3.1
2017-Oct-12 16:30N 38°26' W 009°07'0 0.0
2017-Oct-12 03:41N 38°26' W 009°07'0 0.0
2017-Oct-12 03:30N 38°26' W 009°07'3 5.2
2017-Oct-12 03:00N 38°25' W 009°10'3 6.6
2017-Oct-12 02:30N 38°26' W 009°14'4 8.5
2017-Oct-12 02:00N 38°30' W 009°16'5 0.8
2017-Oct-11 19:44N 38°25' W 009°13'4 8.3
2017-Oct-11 19:12N 38°25' W 009°08'2 8.9
2017-Oct-11 18:58N 38°26' W 009°05'4 8.5
2017-Oct-11 18:28N 38°27' W 009°00'3 7.1
2017-Oct-11 18:00N 38°29' W 008°57'2 0.1
2017-Oct-10 22:00N 38°27' W 008°58'4 9.0
2017-Oct-10 21:30N 38°31' W 008°55'1 0.1
2017-Oct-10 10:11N 38°31' W 008°54'1 5.6
2017-Oct-10 10:00N 38°30' W 008°55'3 6.9
2017-Oct-10 09:31N 38°28' W 008°58'4 7.8
2017-Oct-10 09:00N 38°26' W 009°02'4 7.1
2017-Oct-10 08:30N 38°26' W 009°07'0 0.0
2017-Oct-10 03:42N 38°26' W 009°07'0 0.0
2017-Oct-10 03:30N 38°26' W 009°07'3 6.1
2017-Oct-10 03:00N 38°25' W 009°10'3 6.4
2017-Oct-10 02:30N 38°26' W 009°14'4 8.0
2017-Oct-10 02:00N 38°29' W 009°16'4 7.8
2017-Oct-10 01:30N 38°33' W 009°19'4 7.7
2017-Oct-10 01:00N 38°36' W 009°21'4 0.6
2017-Oct-09 17:49N 38°40' W 009°20'2 7.8
2017-Oct-09 17:30N 38°41' W 009°17'3 6.4
2017-Oct-09 17:01N 38°41' W 009°13'3 5.0
2017-Oct-09 16:29N 38°42' W 009°10'0 0.0
2017-Oct-09 09:07N 38°42' W 009°10'1 4.5
2017-Oct-09 09:00N 38°42' W 009°09'3 5.6
2017-Oct-09 08:30N 38°41' W 009°13'3 6.5
2017-Oct-09 08:00N 38°42' W 009°17'3 5.5
2017-Oct-09 07:30N 38°40' W 009°20'23 2.4
2017-Oct-08 21:42N 38°26' W 008°56'1 4.5
2017-Oct-08 21:30N 38°27' W 008°56'4 7.9
2017-Oct-08 20:59N 38°31' W 008°54'0 0.5
2017-Oct-08 20:30N 38°31' W 008°54'  

Dump ship's entire track history